createdAt,value
2022-08-22T00:01:33.620Z,55.57
2022-08-22T00:02:48.496Z,50.38
2022-08-22T00:02:49.791Z,54.99
2022-08-22T00:04:06.747Z,55.68
2022-08-22T00:06:53.312Z,55.60
2022-08-22T00:09:42.162Z,55.79
2022-08-22T00:12:31.550Z,55.77
2022-08-22T00:14:59.955Z,55.52
2022-08-22T00:17:30.160Z,55.38
2022-08-22T00:20:13.299Z,55.29
2022-08-22T00:22:43.181Z,55.71
2022-08-22T00:25:24.602Z,55.91
2022-08-22T00:27:59.662Z,55.35
2022-08-22T00:33:02.656Z,55.52
2022-08-22T00:35:53.770Z,55.60
2022-08-22T00:41:07.074Z,55.58
2022-08-22T00:43:48.669Z,55.85
2022-08-22T00:46:37.617Z,56.03
2022-08-22T00:49:22.503Z,55.48
2022-08-22T00:52:31.638Z,55.29
2022-08-22T00:55:21.408Z,55.63
2022-08-22T00:58:15.436Z,55.48
2022-08-22T01:00:45.310Z,55.55
2022-08-22T01:03:24.569Z,55.43
2022-08-22T01:06:00.545Z,55.74
2022-08-22T01:09:01.688Z,55.31
2022-08-22T01:12:07.204Z,55.26
2022-08-22T01:14:43.363Z,55.37
2022-08-22T01:17:16.224Z,55.50
2022-08-22T01:20:07.911Z,55.65
2022-08-22T01:23:00.390Z,55.71
2022-08-22T01:25:55.019Z,55.52
2022-08-22T01:28:49.942Z,55.78
2022-08-22T01:31:55.126Z,55.58
2022-08-22T01:34:43.214Z,55.41
2022-08-22T01:37:31.670Z,55.17
2022-08-22T01:40:26.231Z,55.50
2022-08-22T01:43:10.727Z,55.33
2022-08-22T01:46:02.187Z,55.43
2022-08-22T01:49:00.459Z,55.84
2022-08-22T01:51:33.143Z,55.69
2022-08-22T01:54:10.049Z,55.53
2022-08-22T01:56:44.510Z,55.62
2022-08-22T01:59:45.192Z,55.25
2022-08-22T02:02:20.993Z,55.23
2022-08-22T02:04:52.221Z,55.56
2022-08-22T02:07:31.591Z,55.29
2022-08-22T02:10:11.767Z,55.54
2022-08-22T02:12:41.955Z,55.30
2022-08-22T02:15:14.829Z,55.45
2022-08-22T02:17:53.906Z,55.31
2022-08-22T02:20:25.705Z,55.36
2022-08-22T02:23:26.598Z,55.34
2022-08-22T02:26:16.900Z,55.18
2022-08-22T02:28:56.601Z,55.66
2022-08-22T02:31:41.150Z,55.66
2022-08-22T02:34:26.720Z,55.25
2022-08-22T02:37:06.921Z,55.41
2022-08-22T02:39:35.069Z,55.42
2022-08-22T02:42:12.413Z,55.16
2022-08-22T02:44:48.504Z,55.40
2022-08-22T02:47:33.036Z,55.61
2022-08-22T02:50:12.689Z,55.56
2022-08-22T02:53:01.376Z,55.36
2022-08-22T02:55:48.595Z,55.58
2022-08-22T02:58:24.608Z,55.54
2022-08-22T03:01:23.745Z,55.53
2022-08-22T03:03:51.202Z,55.55
2022-08-22T03:06:38.606Z,55.22
2022-08-22T03:09:15.118Z,54.88
2022-08-22T03:11:52.209Z,55.23
2022-08-22T03:14:21.472Z,55.29
2022-08-22T03:16:55.476Z,55.55
2022-08-22T03:19:31.876Z,55.16
2022-08-22T03:22:01.304Z,55.32
2022-08-22T03:24:43.123Z,55.48
2022-08-22T03:27:27.753Z,55.88
2022-08-22T03:30:22.785Z,55.70
2022-08-22T03:32:59.551Z,55.97
2022-08-22T03:35:32.419Z,55.59
2022-08-22T03:38:14.676Z,55.70
2022-08-22T03:41:06.481Z,55.47
2022-08-22T03:44:12.272Z,55.40
2022-08-22T03:47:03.470Z,55.64
2022-08-22T03:49:59.373Z,55.43
2022-08-22T03:52:33.006Z,55.14
2022-08-22T03:55:10.052Z,55.30
2022-08-22T03:57:59.158Z,55.63
2022-08-22T04:00:35.952Z,55.42
2022-08-22T04:03:06.190Z,55.27
2022-08-22T04:05:35.833Z,55.61
2022-08-22T04:08:25.952Z,55.38
2022-08-22T04:11:18.060Z,55.61
2022-08-22T04:14:08.559Z,55.47
2022-08-22T04:17:09.879Z,55.38
2022-08-22T04:20:01.439Z,55.52
2022-08-22T04:22:47.244Z,55.33
2022-08-22T04:25:20.007Z,55.52
2022-08-22T04:27:56.001Z,55.18
2022-08-22T04:30:31.550Z,55.36
2022-08-22T04:33:14.443Z,55.31
2022-08-22T04:35:59.482Z,55.26
2022-08-22T04:38:31.746Z,55.40
2022-08-22T04:41:04.756Z,55.33
2022-08-22T04:43:47.242Z,55.37
2022-08-22T04:46:22.433Z,55.06
2022-08-22T04:49:14.831Z,55.25
2022-08-22T04:52:01.130Z,55.21
2022-08-22T04:54:40.540Z,55.42
2022-08-22T04:57:16.363Z,55.55
2022-08-22T04:59:43.729Z,55.33
2022-08-22T05:02:11.845Z,55.39
2022-08-22T05:04:47.079Z,55.60
2022-08-22T05:07:22.254Z,55.41
2022-08-22T05:09:56.468Z,55.66
2022-08-22T05:12:29.198Z,55.54
2022-08-22T05:15:01.638Z,55.58
2022-08-22T05:17:29.526Z,55.27
2022-08-22T05:19:58.296Z,55.50
2022-08-22T05:22:29.750Z,55.37
2022-08-22T05:24:59.815Z,55.66
2022-08-22T05:27:34.195Z,55.75
2022-08-22T05:30:11.820Z,55.48
2022-08-22T05:32:59.711Z,55.68
2022-08-22T05:35:35.574Z,55.24
2022-08-22T05:38:02.620Z,55.51
2022-08-22T05:40:30.446Z,55.30
2022-08-22T05:42:57.691Z,55.29
2022-08-22T05:45:25.334Z,55.40
2022-08-22T05:48:05.261Z,54.91
2022-08-22T05:50:38.369Z,55.26
2022-08-22T05:53:26.773Z,55.76
2022-08-22T05:56:03.028Z,55.68
2022-08-22T05:58:39.378Z,55.34
2022-08-22T06:01:14.285Z,55.63
2022-08-22T06:03:48.421Z,55.46
2022-08-22T06:06:16.938Z,55.60
2022-08-22T06:08:48.710Z,55.62
2022-08-22T06:11:20.485Z,56.04
2022-08-22T06:14:17.599Z,55.38
2022-08-22T06:16:48.896Z,54.96
2022-08-22T06:19:19.420Z,55.80
2022-08-22T06:21:48.974Z,55.36
2022-08-22T06:24:21.182Z,55.58
2022-08-22T06:26:51.233Z,55.31
2022-08-22T06:29:29.387Z,55.71
2022-08-22T06:31:56.514Z,55.32
2022-08-22T06:34:27.011Z,55.15
2022-08-22T06:36:54.395Z,55.54
2022-08-22T06:39:26.691Z,55.27
2022-08-22T06:42:01.583Z,55.61
2022-08-22T06:44:36.591Z,55.78
2022-08-22T06:47:06.416Z,55.67
2022-08-22T06:49:34.846Z,55.33
2022-08-22T06:52:23.451Z,55.64
2022-08-22T06:55:12.724Z,55.50
2022-08-22T06:57:44.071Z,55.25
2022-08-22T07:00:13.627Z,55.59
2022-08-22T07:02:46.118Z,55.44
2022-08-22T07:05:21.454Z,55.64
2022-08-22T07:07:49.179Z,55.16
2022-08-22T07:10:16.621Z,55.36
2022-08-22T07:12:45.418Z,56.01
2022-08-22T07:15:36.735Z,55.80
2022-08-22T07:18:09.113Z,55.10
2022-08-22T07:20:38.682Z,55.57
2022-08-22T07:23:11.097Z,55.78
2022-08-22T07:26:04.654Z,55.98
2022-08-22T07:28:51.433Z,55.69
2022-08-22T07:31:42.027Z,55.84
2022-08-22T07:34:38.126Z,55.20
2022-08-22T07:37:09.795Z,55.52
2022-08-22T07:39:51.665Z,55.74
2022-08-22T07:42:30.304Z,56.03
2022-08-22T07:45:13.609Z,55.49
2022-08-22T07:48:02.903Z,55.99
2022-08-22T07:50:32.058Z,55.55
2022-08-22T07:53:05.246Z,55.71
2022-08-22T07:55:32.458Z,54.86
2022-08-22T07:58:02.118Z,55.62
2022-08-22T08:00:31.558Z,55.36
2022-08-22T08:03:01.701Z,55.76
2022-08-22T08:05:30.737Z,55.63
2022-08-22T08:07:57.769Z,55.43
2022-08-22T08:10:33.229Z,56.04
2022-08-22T08:13:03.459Z,55.84
2022-08-22T08:15:32.308Z,55.95
2022-08-22T08:18:01.984Z,55.61
2022-08-22T08:20:29.558Z,55.64
2022-08-22T08:22:56.882Z,55.26
2022-08-22T08:25:28.869Z,55.61
2022-08-22T08:28:14.421Z,55.92
2022-08-22T08:30:53.296Z,55.83
2022-08-22T08:33:25.105Z,55.62
2022-08-22T08:36:03.281Z,55.70
2022-08-22T08:38:55.741Z,55.57
2022-08-22T08:41:32.140Z,55.57
2022-08-22T08:44:20.169Z,55.98
2022-08-22T08:46:55.641Z,55.58
2022-08-22T08:49:33.578Z,55.63
2022-08-22T08:52:19.499Z,55.47
2022-08-22T08:54:56.127Z,55.65
2022-08-22T08:57:51.322Z,55.64
2022-08-22T09:00:21.594Z,55.38
2022-08-22T09:03:09.554Z,56.01
2022-08-22T09:05:39.622Z,55.58
2022-08-22T09:08:44.052Z,55.71
2022-08-22T09:11:16.937Z,56.02
2022-08-22T09:14:22.980Z,56.36
2022-08-22T09:16:53.585Z,56.06
2022-08-22T09:19:27.641Z,56.38
2022-08-22T09:22:14.668Z,55.87
2022-08-22T09:24:57.479Z,55.92
2022-08-22T09:27:38.116Z,56.57
2022-08-22T09:30:12.431Z,56.16
2022-08-22T09:32:48.795Z,56.16
2022-08-22T09:35:18.774Z,56.22
2022-08-22T09:38:15.874Z,56.20
2022-08-22T09:40:55.495Z,56.58
2022-08-22T09:43:38.929Z,55.76
2022-08-22T09:46:32.264Z,55.63
2022-08-22T09:49:14.290Z,55.64
2022-08-22T09:52:34.328Z,55.51
2022-08-22T09:55:08.161Z,55.70
2022-08-22T09:57:51.315Z,56.31
2022-08-22T10:00:47.422Z,56.36
2022-08-22T10:03:46.741Z,56.18
2022-08-22T10:06:18.710Z,56.27
2022-08-22T10:09:03.937Z,56.28
2022-08-22T10:11:45.469Z,56.00
2022-08-22T10:14:22.768Z,56.44
2022-08-22T10:16:58.851Z,55.45
2022-08-22T10:20:03.145Z,55.14
2022-08-22T10:22:48.846Z,55.57
2022-08-22T10:25:25.542Z,55.05
2022-08-22T10:28:28.499Z,55.30
2022-08-22T10:31:08.074Z,55.38
2022-08-22T10:33:44.391Z,55.77
2022-08-22T10:36:17.780Z,55.75
2022-08-22T10:38:53.379Z,55.61
2022-08-22T10:41:30.135Z,55.96
2022-08-22T10:44:19.096Z,55.67
2022-08-22T10:47:01.107Z,55.51
2022-08-22T10:49:29.440Z,55.85
2022-08-22T10:52:17.513Z,55.94
2022-08-22T10:54:52.763Z,55.67
2022-08-22T10:57:42.528Z,55.86
2022-08-22T11:00:15.676Z,55.42
2022-08-22T11:02:49.144Z,55.37
2022-08-22T11:05:42.748Z,55.72
2022-08-22T11:08:28.769Z,55.98
2022-08-22T11:11:11.572Z,56.03
2022-08-22T11:13:46.077Z,56.13
2022-08-22T11:16:16.617Z,56.16
2022-08-22T11:19:02.782Z,55.92
2022-08-22T11:21:41.069Z,56.41
2022-08-22T11:24:34.630Z,56.07
2022-08-22T11:27:40.894Z,55.81
2022-08-22T11:30:19.167Z,56.33
2022-08-22T11:32:59.591Z,56.04
2022-08-22T11:35:57.848Z,55.75
2022-08-22T11:38:39.572Z,55.59
2022-08-22T11:41:19.954Z,55.76
2022-08-22T11:44:09.032Z,55.67
2022-08-22T11:46:38.660Z,55.74
2022-08-22T11:49:09.375Z,55.74
2022-08-22T11:51:53.685Z,55.39
2022-08-22T11:54:31.518Z,55.51
2022-08-22T11:57:17.646Z,54.92
2022-08-22T12:00:15.132Z,55.05
2022-08-22T12:03:00.601Z,54.68
2022-08-22T12:05:33.967Z,55.21
2022-08-22T12:08:09.711Z,55.86
2022-08-22T12:10:47.618Z,57.08
2022-08-22T12:13:21.509Z,56.58
2022-08-22T12:16:16.829Z,56.55
2022-08-22T12:19:08.542Z,55.78
2022-08-22T12:21:54.364Z,56.21
2022-08-22T12:24:24.800Z,55.92
2022-08-22T12:27:28.482Z,55.56
2022-08-22T12:29:55.950Z,55.90
2022-08-22T12:32:45.836Z,56.01
2022-08-22T12:35:46.173Z,56.20
2022-08-22T12:38:30.687Z,55.98
2022-08-22T12:43:53.388Z,56.48
2022-08-22T12:46:32.085Z,56.10
2022-08-22T12:49:18.143Z,55.89
2022-08-22T12:51:47.947Z,56.34
2022-08-22T12:54:30.505Z,56.28
2022-08-22T12:57:23.937Z,56.55
2022-08-22T12:59:58.188Z,57.16
2022-08-22T13:02:27.972Z,56.49
2022-08-22T13:05:20.221Z,57.15
2022-08-22T13:08:12.688Z,57.46
2022-08-22T13:10:48.261Z,57.45
2022-08-22T13:13:38.657Z,56.94
2022-08-22T13:16:09.080Z,57.26
2022-08-22T13:18:47.472Z,57.59
2022-08-22T13:21:34.690Z,57.63
2022-08-22T13:24:17.026Z,57.88
2022-08-22T13:26:58.313Z,57.76
2022-08-22T13:29:42.903Z,57.46
2022-08-22T13:32:16.856Z,57.65
2022-08-22T13:34:46.216Z,57.78
2022-08-22T13:37:16.344Z,57.85
2022-08-22T13:39:45.650Z,57.54
2022-08-22T13:42:20.208Z,58.12
2022-08-22T13:44:57.072Z,57.79
2022-08-22T13:47:25.796Z,57.58
2022-08-22T13:50:14.013Z,57.82
2022-08-22T13:52:52.214Z,58.20
2022-08-22T13:55:32.697Z,57.41
2022-08-22T13:58:07.725Z,57.23
2022-08-22T14:01:03.486Z,57.42
2022-08-22T14:03:37.793Z,56.88
2022-08-22T14:06:36.994Z,57.26
2022-08-22T14:09:09.551Z,57.06
2022-08-22T14:11:46.189Z,57.66
2022-08-22T14:14:13.383Z,57.92
2022-08-22T14:16:52.199Z,58.05
2022-08-22T14:19:52.657Z,58.42
2022-08-22T14:22:22.090Z,57.92
2022-08-22T14:25:01.557Z,58.67
2022-08-22T14:27:39.698Z,58.82
2022-08-22T14:30:15.774Z,58.68
2022-08-22T14:32:47.268Z,58.63
2022-08-22T14:35:35.071Z,59.30
2022-08-22T14:38:32.552Z,58.31
2022-08-22T14:41:20.726Z,58.54
2022-08-22T14:44:20.389Z,58.58
2022-08-22T14:46:53.743Z,59.30
2022-08-22T14:49:33.755Z,58.99
2022-08-22T14:52:07.640Z,59.11
2022-08-22T14:54:39.059Z,58.57
2022-08-22T14:57:12.542Z,58.80
2022-08-22T14:59:50.026Z,59.65
2022-08-22T15:02:29.474Z,58.61
2022-08-22T15:04:56.961Z,58.04
2022-08-22T15:07:34.456Z,58.14
2022-08-22T15:10:07.939Z,59.63
2022-08-22T15:12:41.116Z,57.78
2022-08-22T15:15:27.426Z,58.55
2022-08-22T15:17:54.981Z,58.35
2022-08-22T15:20:35.648Z,58.74
2022-08-22T15:23:09.911Z,58.96
2022-08-22T15:25:41.512Z,59.36
2022-08-22T15:28:20.307Z,58.89
2022-08-22T15:30:56.754Z,58.96
2022-08-22T15:33:26.957Z,59.06
2022-08-22T15:36:27.257Z,59.64
2022-08-22T15:38:56.810Z,58.89
2022-08-22T15:41:36.491Z,59.11
2022-08-22T15:44:32.348Z,59.29
2022-08-22T15:47:10.873Z,59.17
2022-08-22T15:49:55.207Z,59.38
2022-08-22T15:52:30.922Z,58.96
2022-08-22T15:55:19.111Z,59.47
2022-08-22T15:58:00.196Z,59.26
2022-08-22T16:00:43.338Z,59.08
2022-08-22T16:03:23.962Z,58.79
2022-08-22T16:06:10.336Z,59.34
2022-08-22T16:08:37.094Z,59.47
2022-08-22T16:11:04.166Z,59.25
2022-08-22T16:13:31.120Z,59.33
2022-08-22T16:16:13.162Z,59.33
2022-08-22T16:18:40.372Z,59.56
2022-08-22T16:21:08.230Z,59.54
2022-08-22T16:23:53.954Z,59.33
2022-08-22T16:26:30.204Z,59.38
2022-08-22T16:29:17.880Z,59.45
2022-08-22T16:31:48.580Z,59.80
2022-08-22T16:34:18.379Z,59.07
2022-08-22T16:37:03.611Z,59.06
2022-08-22T16:40:01.758Z,59.36
2022-08-22T16:42:38.616Z,59.08
2022-08-22T16:45:08.720Z,59.58
2022-08-22T16:47:41.817Z,58.96
2022-08-22T16:50:27.121Z,58.95
2022-08-22T16:53:03.070Z,59.16
2022-08-22T16:55:30.217Z,59.59
2022-08-22T16:58:35.697Z,58.67
2022-08-22T17:01:50.574Z,59.00
2022-08-22T17:04:35.261Z,58.87
2022-08-22T17:07:17.129Z,59.20
2022-08-22T17:09:51.472Z,59.59
2022-08-22T17:12:30.889Z,58.87
2022-08-22T17:15:25.978Z,59.08
2022-08-22T17:18:15.063Z,58.79
2022-08-22T17:21:03.793Z,58.36
2022-08-22T17:24:07.531Z,59.22
2022-08-22T17:26:37.471Z,58.62
2022-08-22T17:29:10.296Z,58.50
2022-08-22T17:31:47.482Z,58.89
2022-08-22T17:34:29.302Z,59.24
2022-08-22T17:37:01.334Z,58.51
2022-08-22T17:42:26.036Z,58.40
2022-08-22T17:45:04.708Z,58.24
2022-08-22T17:47:44.322Z,58.78
2022-08-22T17:50:18.604Z,58.62
2022-08-22T17:52:55.173Z,58.49
2022-08-22T17:55:26.685Z,58.31
2022-08-22T17:57:56.115Z,58.79
2022-08-22T18:00:30.933Z,58.12
2022-08-22T18:03:26.335Z,58.50
2022-08-22T18:05:59.613Z,58.57
2022-08-22T18:09:13.269Z,58.33
2022-08-22T18:11:24.461Z,58.38
2022-08-22T18:14:05.594Z,57.99
2022-08-22T18:16:52.395Z,58.78
2022-08-22T18:19:54.102Z,59.25
2022-08-22T18:22:33.154Z,59.56
2022-08-22T18:25:20.598Z,60.12
2022-08-22T18:27:47.707Z,59.94
2022-08-22T18:30:16.909Z,60.02
2022-08-22T18:32:55.318Z,60.84
2022-08-22T18:35:31.210Z,60.87
2022-08-22T18:38:04.066Z,60.19
2022-08-22T18:40:51.909Z,60.56
2022-08-22T18:43:38.161Z,59.85
2022-08-22T18:46:25.957Z,60.27
2022-08-22T18:49:14.046Z,60.26
2022-08-22T18:51:41.628Z,60.04
2022-08-22T18:54:08.481Z,60.96
2022-08-22T18:56:58.458Z,60.00
2022-08-22T18:59:40.905Z,60.63
2022-08-22T19:02:33.789Z,59.91
2022-08-22T19:05:25.857Z,60.68
2022-08-22T19:08:23.309Z,59.95
2022-08-22T19:10:54.738Z,59.77
2022-08-22T19:13:28.361Z,60.38
2022-08-22T19:16:04.591Z,61.13
2022-08-22T19:18:37.971Z,60.32
2022-08-22T19:21:49.351Z,60.97
2022-08-22T19:24:25.438Z,60.30
2022-08-22T19:27:07.613Z,59.56
2022-08-22T19:29:34.478Z,60.04
2022-08-22T19:32:06.602Z,60.39
2022-08-22T19:34:41.643Z,59.95
2022-08-22T19:37:30.719Z,60.89
2022-08-22T19:40:08.924Z,60.60
2022-08-22T19:42:38.160Z,61.39
2022-08-22T19:45:29.335Z,60.60
2022-08-22T19:48:07.752Z,60.56
2022-08-22T19:50:37.681Z,60.60
2022-08-22T19:53:24.528Z,60.75
2022-08-22T19:56:13.694Z,60.94
2022-08-22T19:59:14.405Z,60.82
2022-08-22T20:01:44.062Z,60.75
2022-08-22T20:04:30.068Z,60.47
2022-08-22T20:07:21.071Z,60.66
2022-08-22T20:10:09.437Z,61.18
2022-08-22T20:13:01.286Z,60.20
2022-08-22T20:15:29.939Z,60.92
2022-08-22T20:18:46.489Z,61.05
2022-08-22T20:20:59.612Z,60.95
2022-08-22T20:23:30.761Z,60.47
2022-08-22T20:25:58.042Z,60.99
2022-08-22T20:28:58.259Z,60.44
2022-08-22T20:31:27.043Z,60.59
2022-08-22T20:33:58.878Z,61.13
2022-08-22T20:36:27.938Z,60.91
2022-08-22T20:39:00.399Z,61.26
2022-08-22T20:41:35.796Z,60.49
2022-08-22T20:44:21.784Z,60.60
2022-08-22T20:46:53.371Z,61.29
2022-08-22T20:49:26.669Z,60.77
2022-08-22T20:52:01.970Z,60.60
2022-08-22T20:54:34.569Z,60.64
2022-08-22T20:57:10.263Z,60.92
2022-08-22T20:59:39.401Z,60.96
2022-08-22T21:02:18.422Z,60.94
2022-08-22T21:05:03.771Z,60.80
2022-08-22T21:07:30.622Z,60.96
2022-08-22T21:10:23.155Z,61.00
2022-08-22T21:13:06.237Z,61.09
2022-08-22T21:15:39.414Z,61.13
2022-08-22T21:18:08.137Z,60.70
2022-08-22T21:20:36.989Z,60.68
2022-08-22T21:23:06.225Z,61.31
2022-08-22T21:25:33.164Z,60.59
2022-08-22T21:28:00.911Z,61.35
2022-08-22T21:30:28.379Z,61.79
2022-08-22T21:32:56.390Z,62.07
2022-08-22T21:35:30.266Z,61.87
2022-08-22T21:37:57.249Z,61.83
2022-08-22T21:40:35.554Z,61.47
2022-08-22T21:43:05.765Z,61.74
2022-08-22T21:45:37.324Z,61.11
2022-08-22T21:48:30.295Z,61.03
2022-08-22T21:50:57.531Z,61.11
2022-08-22T21:53:27.888Z,61.34
2022-08-22T21:56:17.037Z,61.19
2022-08-22T21:58:46.330Z,60.90
2022-08-22T22:01:30.327Z,61.31
2022-08-22T22:03:59.026Z,60.81
2022-08-22T22:06:26.213Z,60.50
2022-08-22T22:08:53.091Z,60.44
2022-08-22T22:11:20.261Z,60.93
2022-08-22T22:13:47.139Z,60.76
2022-08-22T22:16:14.155Z,60.58
2022-08-22T22:18:41.317Z,60.97
2022-08-22T22:21:08.524Z,60.50
2022-08-22T22:23:35.415Z,60.22
2022-08-22T22:26:03.800Z,60.09
2022-08-22T22:28:32.655Z,60.21
2022-08-22T22:30:59.612Z,60.19
2022-08-22T22:33:29.505Z,60.16
2022-08-22T22:35:58.039Z,60.25
2022-08-22T22:38:24.922Z,60.47
2022-08-22T22:40:52.475Z,60.56
2022-08-22T22:43:19.363Z,60.30
2022-08-22T22:45:46.252Z,60.34
2022-08-22T22:48:13.498Z,60.49
2022-08-22T22:50:50.877Z,60.38
2022-08-22T22:53:21.253Z,59.81
2022-08-22T22:55:59.836Z,59.36
2022-08-22T22:58:28.425Z,59.93
2022-08-22T23:00:56.105Z,59.76
2022-08-22T23:03:23.086Z,59.67
2022-08-22T23:05:50.180Z,59.82
2022-08-22T23:08:17.060Z,60.07
2022-08-22T23:10:43.945Z,59.99
2022-08-22T23:13:11.079Z,59.80
2022-08-22T23:15:37.948Z,59.31
2022-08-22T23:18:04.832Z,59.56
2022-08-22T23:20:31.971Z,59.95
2022-08-22T23:22:59.677Z,60.14
2022-08-22T23:25:26.694Z,59.70
2022-08-22T23:27:54.085Z,59.93
2022-08-22T23:30:21.557Z,59.61
2022-08-22T23:32:48.448Z,59.69
2022-08-22T23:35:15.596Z,59.36
2022-08-22T23:37:42.454Z,59.95
2022-08-22T23:40:10.548Z,59.10
2022-08-22T23:42:37.713Z,59.68
2022-08-22T23:45:05.005Z,59.12
2022-08-22T23:47:31.888Z,59.21
2022-08-22T23:49:59.011Z,59.60
2022-08-22T23:52:33.109Z,59.61
2022-08-22T23:55:00.217Z,60.03
2022-08-22T23:57:27.459Z,59.86
2022-08-22T23:59:57.984Z,59.73
